Terminal Aerodrome Forecast
Issued by NWS

Home | Current Version | Previous Version | Text Only | Print | Product List | Glossary On
Versions: 1 2 3 4 5 6 7 8 9 10 11 12 13 14 15 16 17
915
FTUS44 KJAN 170559
TAFGTR
TAF
KGTR 170559Z 1706/1806 17005KT P6SM SCT015
     FM171300 22006KT P6SM BKN015
     FM171600 25008KT P6SM FEW050 SCT250
     FM171900 25007KT P6SM VCTS SCT050CB
     FM180000 20004KT P6SM SCT060 SCT100=

USA.gov is the U.S. government's official web portal to all federal, state and local government web resources and services.